createdAt,value
2019-04-30T00:01:20.556Z,33.20
2019-04-30T00:04:07.026Z,32.93
2019-04-30T00:06:39.538Z,38.30
2019-04-30T00:09:17.086Z,36.00
2019-04-30T00:11:42.785Z,35.57
2019-04-30T00:14:15.142Z,33.17
2019-04-30T00:16:45.190Z,40.07
2019-04-30T00:19:19.473Z,35.17
2019-04-30T00:21:48.285Z,35.30
2019-04-30T00:24:19.370Z,37.63
2019-04-30T00:26:52.384Z,37.03
2019-04-30T00:29:26.664Z,38.63
2019-04-30T00:31:57.655Z,37.80
2019-04-30T00:34:25.850Z,37.20
2019-04-30T00:36:56.149Z,40.43
2019-04-30T00:39:27.258Z,38.70
2019-04-30T00:41:57.854Z,38.73
2019-04-30T00:44:28.534Z,39.37
2019-04-30T00:47:00.690Z,42.43
2019-04-30T00:49:30.901Z,36.53
2019-04-30T00:52:01.211Z,41.67
2019-04-30T00:54:35.078Z,39.77
2019-04-30T00:57:07.251Z,42.07
2019-04-30T00:59:35.370Z,39.23
2019-04-30T01:02:35.772Z,42.43
2019-04-30T01:05:11.069Z,39.67
2019-04-30T01:07:48.827Z,38.63
2019-04-30T01:10:15.207Z,38.17
2019-04-30T01:12:49.605Z,40.70
2019-04-30T01:15:19.080Z,41.27
2019-04-30T01:17:51.090Z,39.20
2019-04-30T01:20:24.157Z,38.93
2019-04-30T01:22:54.145Z,40.97
2019-04-30T01:25:24.810Z,38.83
2019-04-30T01:27:55.454Z,39.73
2019-04-30T01:30:25.767Z,46.37
2019-04-30T01:32:57.141Z,42.13
2019-04-30T01:35:32.462Z,38.40
2019-04-30T01:38:04.089Z,38.80
2019-04-30T01:40:32.245Z,39.67
2019-04-30T01:43:02.553Z,41.67
2019-04-30T01:45:32.873Z,42.40
2019-04-30T01:48:08.840Z,41.73
2019-04-30T01:50:38.707Z,38.13
2019-04-30T01:53:11.445Z,43.10
2019-04-30T01:55:59.202Z,40.73
2019-04-30T01:58:49.484Z,42.90
2019-04-30T02:01:22.333Z,41.10
2019-04-30T02:03:52.633Z,41.77
2019-04-30T02:06:22.981Z,41.10
2019-04-30T02:08:53.269Z,45.80
2019-04-30T02:11:23.681Z,46.30
2019-04-30T02:13:54.017Z,46.83
2019-04-30T02:16:24.354Z,46.40
2019-04-30T02:18:54.659Z,49.73
2019-04-30T02:21:25.017Z,45.63
2019-04-30T02:23:55.361Z,47.40
2019-04-30T02:26:25.688Z,49.77
2019-04-30T02:28:56.013Z,56.50
2019-04-30T02:31:26.449Z,48.77
2019-04-30T02:34:04.289Z,51.40
2019-04-30T02:36:41.786Z,50.00
2019-04-30T02:39:12.098Z,52.47
2019-04-30T02:41:43.830Z,50.90
2019-04-30T02:44:14.664Z,48.27
2019-04-30T02:46:46.066Z,50.83
2019-04-30T02:49:20.073Z,47.17
2019-04-30T02:51:50.952Z,51.40
2019-04-30T02:54:29.949Z,51.07
2019-04-30T02:57:06.792Z,50.27
2019-04-30T02:59:40.372Z,52.43
2019-04-30T03:02:11.688Z,49.23
2019-04-30T03:04:42.250Z,51.20
2019-04-30T03:07:12.567Z,56.77
2019-04-30T03:09:42.903Z,52.83
2019-04-30T03:12:13.216Z,55.33
2019-04-30T03:14:43.538Z,54.67
2019-04-30T03:17:23.425Z,50.80
2019-04-30T03:20:03.083Z,54.40
2019-04-30T03:22:30.797Z,50.77
2019-04-30T03:25:01.126Z,56.50
2019-04-30T03:27:32.542Z,49.60
2019-04-30T03:30:02.927Z,51.77
2019-04-30T03:32:36.824Z,51.97
2019-04-30T03:35:05.634Z,55.00
2019-04-30T03:37:35.963Z,53.20
2019-04-30T03:40:06.846Z,51.30
2019-04-30T03:42:39.521Z,53.70
2019-04-30T03:45:10.097Z,56.70
2019-04-30T03:47:43.290Z,55.00
2019-04-30T03:50:12.743Z,53.83
2019-04-30T03:52:43.053Z,55.43
2019-04-30T03:55:13.503Z,55.37
2019-04-30T03:57:43.899Z,53.77
2019-04-30T04:00:17.172Z,50.27
2019-04-30T04:02:50.206Z,53.60
2019-04-30T04:05:43.595Z,57.37
2019-04-30T04:08:36.062Z,54.97
2019-04-30T04:11:19.954Z,52.10
2019-04-30T04:13:50.399Z,53.23
2019-04-30T04:16:20.767Z,47.07
2019-04-30T04:18:51.146Z,50.13
2019-04-30T04:21:21.527Z,49.43
2019-04-30T04:23:51.924Z,49.17
2019-04-30T04:26:22.297Z,47.20
2019-04-30T04:28:52.745Z,44.83
2019-04-30T04:31:23.083Z,45.63
2019-04-30T04:33:53.390Z,49.07
2019-04-30T04:36:23.737Z,48.37
2019-04-30T04:38:54.058Z,50.90
2019-04-30T04:41:24.385Z,57.90
2019-04-30T04:43:54.690Z,59.03
2019-04-30T04:46:25.015Z,58.23
2019-04-30T04:48:55.317Z,52.70
2019-04-30T04:51:36.628Z,52.40
2019-04-30T04:54:00.201Z,54.17
2019-04-30T04:56:30.401Z,50.90
2019-04-30T04:59:00.945Z,46.93
2019-04-30T05:01:31.291Z,53.27
2019-04-30T05:04:01.598Z,48.40
2019-04-30T05:06:31.977Z,49.03
2019-04-30T05:09:02.381Z,49.27
2019-04-30T05:11:32.699Z,46.67
2019-04-30T05:14:03.026Z,46.63
2019-04-30T05:16:34.570Z,52.47
2019-04-30T05:19:04.969Z,45.53
2019-04-30T05:21:42.738Z,44.97
2019-04-30T05:24:08.952Z,47.70
2019-04-30T05:26:39.425Z,49.00
2019-04-30T05:29:09.886Z,48.87
2019-04-30T05:31:40.434Z,44.93
2019-04-30T05:34:10.754Z,48.40
2019-04-30T05:36:41.185Z,46.23
2019-04-30T05:39:11.494Z,46.33
2019-04-30T05:41:41.806Z,50.73
2019-04-30T05:44:12.112Z,43.57
2019-04-30T05:46:42.533Z,44.03
2019-04-30T05:49:12.917Z,44.20
2019-04-30T05:51:52.839Z,43.70
2019-04-30T05:54:15.161Z,40.10
2019-04-30T05:56:45.489Z,43.63
2019-04-30T05:59:15.934Z,44.13
2019-04-30T06:01:48.766Z,31.57
2019-04-30T06:04:19.393Z,36.73
2019-04-30T06:06:49.891Z,34.97
2019-04-30T06:09:38.542Z,31.60
2019-04-30T06:12:40.225Z,34.23
2019-04-30T06:15:34.290Z,37.10
2019-04-30T06:18:11.561Z,35.63
2019-04-30T06:20:38.538Z,33.20
2019-04-30T06:23:09.637Z,33.17
2019-04-30T06:25:55.646Z,34.30
2019-04-30T06:28:13.177Z,32.03
2019-04-30T06:30:43.508Z,30.17
2019-04-30T06:33:14.159Z,30.60
2019-04-30T06:35:45.461Z,28.77
2019-04-30T06:38:16.022Z,27.37
2019-04-30T06:40:46.366Z,28.70
2019-04-30T06:43:21.229Z,27.23
2019-04-30T06:45:54.961Z,28.10
2019-04-30T06:48:30.036Z,29.53
2019-04-30T06:51:02.267Z,28.93
2019-04-30T06:53:35.178Z,31.87
2019-04-30T06:56:09.017Z,27.30
2019-04-30T06:58:41.402Z,24.50
2019-04-30T07:01:13.277Z,29.83
2019-04-30T07:03:43.709Z,25.60
2019-04-30T07:09:08.702Z,23.77
2019-04-30T07:11:41.798Z,25.93
2019-04-30T07:14:12.117Z,26.03
2019-04-30T07:16:42.486Z,24.50
2019-04-30T07:19:13.369Z,23.60
2019-04-30T07:21:45.267Z,25.33
2019-04-30T07:24:15.985Z,25.37
2019-04-30T07:26:46.313Z,24.80
2019-04-30T07:29:16.839Z,20.57
2019-04-30T07:31:49.327Z,24.23
2019-04-30T07:34:19.640Z,24.73
2019-04-30T07:38:00.641Z,22.77
2019-04-30T07:40:30.943Z,21.70
2019-04-30T07:43:01.250Z,20.47
2019-04-30T07:48:03.544Z,22.27
2019-04-30T07:50:34.797Z,19.43
2019-04-30T07:53:06.780Z,22.87
2019-04-30T07:55:39.246Z,22.73
2019-04-30T07:58:09.335Z,23.60
2019-04-30T08:00:41.303Z,20.53
2019-04-30T08:03:35.247Z,19.97
2019-04-30T08:06:06.224Z,21.60
2019-04-30T08:08:36.699Z,20.93
2019-04-30T08:09:36.812Z,21.77
2019-04-30T08:11:06.583Z,21.00
2019-04-30T08:13:39.621Z,24.67
2019-04-30T08:16:09.780Z,22.00
2019-04-30T08:18:40.386Z,23.87
2019-04-30T08:21:10.698Z,22.30
2019-04-30T08:23:41.109Z,23.53
2019-04-30T08:26:11.486Z,21.80
2019-04-30T08:28:41.798Z,25.30
2019-04-30T08:31:12.250Z,22.20
2019-04-30T08:33:43.734Z,21.30
2019-04-30T08:36:14.030Z,20.77
2019-04-30T08:38:44.376Z,19.20
2019-04-30T08:41:15.268Z,20.33
2019-04-30T08:43:45.602Z,21.13
2019-04-30T08:46:18.941Z,22.33
2019-04-30T08:48:51.614Z,19.93
2019-04-30T08:51:21.033Z,23.13
2019-04-30T08:53:51.446Z,20.90
2019-04-30T08:56:22.061Z,18.33
2019-04-30T08:58:54.813Z,18.67
2019-04-30T09:01:24.433Z,20.20
2019-04-30T09:03:54.893Z,23.17
2019-04-30T09:06:29.085Z,22.50
2019-04-30T09:09:24.144Z,18.43
2019-04-30T09:11:55.938Z,18.47
2019-04-30T09:14:26.799Z,20.00
2019-04-30T09:16:57.071Z,18.70
2019-04-30T09:19:27.381Z,18.77
2019-04-30T09:21:59.023Z,18.57
2019-04-30T09:24:31.522Z,20.30
2019-04-30T09:27:02.004Z,21.37
2019-04-30T09:29:33.806Z,18.77
2019-04-30T09:32:04.225Z,16.63
2019-04-30T09:34:34.669Z,21.67
2019-04-30T09:37:05.065Z,20.47
2019-04-30T09:39:35.477Z,18.50
2019-04-30T09:42:09.142Z,20.33
2019-04-30T09:44:39.438Z,17.87
2019-04-30T09:47:09.922Z,16.90
2019-04-30T09:49:42.896Z,17.47
2019-04-30T09:52:13.783Z,19.33
2019-04-30T09:54:46.206Z,21.63
2019-04-30T09:57:19.144Z,20.67
2019-04-30T09:59:48.771Z,17.23
2019-04-30T10:02:19.379Z,19.07
2019-04-30T10:04:50.051Z,18.27
2019-04-30T10:07:20.657Z,20.70
2019-04-30T10:09:51.094Z,18.73
2019-04-30T10:12:21.378Z,19.97
2019-04-30T10:14:51.733Z,18.33
2019-04-30T10:17:34.266Z,17.87
2019-04-30T10:20:06.705Z,20.50
2019-04-30T10:22:39.940Z,20.63
2019-04-30T10:25:11.239Z,18.53
2019-04-30T10:27:41.582Z,33.53
2019-04-30T10:30:13.451Z,20.10
2019-04-30T10:32:43.730Z,20.47
2019-04-30T10:35:13.691Z,19.00
2019-04-30T10:37:44.109Z,22.90
2019-04-30T10:40:14.654Z,19.83
2019-04-30T10:42:45.057Z,19.37
2019-04-30T10:45:15.358Z,18.93
2019-04-30T10:47:45.842Z,19.30
2019-04-30T10:50:16.476Z,19.57
2019-04-30T10:52:46.915Z,18.93
2019-04-30T10:55:17.808Z,18.97
2019-04-30T10:57:49.544Z,20.07
2019-04-30T11:00:24.037Z,19.63
2019-04-30T11:02:55.574Z,20.20
2019-04-30T11:05:26.029Z,20.87
2019-04-30T11:07:56.414Z,20.10
2019-04-30T11:10:28.654Z,20.53
2019-04-30T11:12:59.093Z,23.63
2019-04-30T11:15:29.421Z,18.73
2019-04-30T11:18:00.155Z,20.95
2019-04-30T11:20:30.749Z,21.87
2019-04-30T11:23:13.272Z,20.73
2019-04-30T11:25:34.138Z,20.17
2019-04-30T11:28:05.665Z,21.27
2019-04-30T11:30:39.012Z,22.30
2019-04-30T11:33:09.261Z,19.53
2019-04-30T11:35:39.686Z,21.37
2019-04-30T11:38:10.066Z,21.33
2019-04-30T11:40:40.706Z,19.70
2019-04-30T11:43:10.745Z,22.13
2019-04-30T11:46:22.933Z,23.93
2019-04-30T11:48:53.406Z,20.87
2019-04-30T11:51:27.016Z,19.83
2019-04-30T11:53:59.211Z,24.07
2019-04-30T11:56:29.050Z,21.23
2019-04-30T11:58:59.375Z,25.40
2019-04-30T12:01:31.369Z,23.17
2019-04-30T12:04:01.785Z,21.93
2019-04-30T12:06:32.169Z,21.90
2019-04-30T12:09:22.918Z,21.70
2019-04-30T12:11:53.253Z,18.73
2019-04-30T12:14:23.731Z,19.10
2019-04-30T12:16:54.101Z,19.93
2019-04-30T12:19:24.409Z,19.37
2019-04-30T12:21:54.738Z,17.03
2019-04-30T12:24:25.046Z,18.23
2019-04-30T12:26:55.370Z,20.00
2019-04-30T12:29:25.750Z,20.53
2019-04-30T12:31:56.269Z,21.60
2019-04-30T12:34:29.494Z,20.60
2019-04-30T12:37:00.003Z,21.27
2019-04-30T12:39:30.309Z,20.33
2019-04-30T12:42:02.135Z,20.20
2019-04-30T12:44:33.285Z,21.17
2019-04-30T12:47:03.684Z,18.40
2019-04-30T12:50:09.558Z,20.20
2019-04-30T12:53:01.934Z,18.90
2019-04-30T12:55:51.295Z,20.83
2019-04-30T12:58:21.746Z,21.67
2019-04-30T13:00:52.262Z,23.03
2019-04-30T13:03:22.592Z,25.50
2019-04-30T13:05:53.482Z,19.03
2019-04-30T13:08:24.475Z,19.67
2019-04-30T13:10:55.636Z,19.53
2019-04-30T13:13:26.421Z,18.13
2019-04-30T13:15:59.842Z,19.13
2019-04-30T13:18:29.625Z,18.87
2019-04-30T13:21:00.143Z,19.87
2019-04-30T13:23:30.524Z,17.93
2019-04-30T13:26:01.069Z,19.93
2019-04-30T13:28:36.158Z,21.03
2019-04-30T13:31:06.146Z,18.90
2019-04-30T13:33:42.226Z,15.33
2019-04-30T13:36:12.848Z,20.93
2019-04-30T13:38:52.356Z,18.30
2019-04-30T13:41:46.224Z,18.83
2019-04-30T13:44:20.809Z,16.83
2019-04-30T13:46:51.246Z,17.73
2019-04-30T13:49:21.670Z,15.97
2019-04-30T13:51:53.154Z,17.43
2019-04-30T13:54:23.443Z,16.47
2019-04-30T13:56:53.757Z,18.17
2019-04-30T13:59:24.122Z,20.27
2019-04-30T14:01:54.465Z,19.73
2019-04-30T14:04:42.850Z,15.37
2019-04-30T14:07:44.781Z,17.57
2019-04-30T14:10:15.309Z,15.90
2019-04-30T14:12:51.882Z,15.20
2019-04-30T14:15:22.321Z,18.73
2019-04-30T14:17:52.778Z,16.37
2019-04-30T14:20:23.147Z,16.23
2019-04-30T14:22:53.482Z,15.73
2019-04-30T14:25:23.854Z,15.27
2019-04-30T14:27:54.828Z,14.97
2019-04-30T14:30:25.784Z,16.93
2019-04-30T14:32:56.089Z,17.43
2019-04-30T14:35:26.446Z,22.27
2019-04-30T14:37:56.786Z,15.00
2019-04-30T14:40:29.801Z,17.50
2019-04-30T14:43:09.834Z,12.73
2019-04-30T14:45:52.989Z,12.67
2019-04-30T14:48:31.098Z,16.37
2019-04-30T14:51:01.333Z,14.10
2019-04-30T14:53:58.784Z,15.03
2019-04-30T14:56:39.306Z,14.00
2019-04-30T14:59:40.564Z,15.23
2019-04-30T15:02:36.117Z,12.67
2019-04-30T15:05:09.007Z,13.93
2019-04-30T15:07:42.142Z,14.37
2019-04-30T15:10:12.679Z,15.30
2019-04-30T15:12:42.993Z,13.30
2019-04-30T15:15:14.295Z,13.30
2019-04-30T15:17:44.709Z,13.97
2019-04-30T15:20:15.594Z,14.10
2019-04-30T15:22:55.601Z,13.17
2019-04-30T15:25:34.156Z,12.40
2019-04-30T15:28:01.740Z,11.23
2019-04-30T15:30:32.150Z,13.20
2019-04-30T15:33:11.237Z,15.07
2019-04-30T15:35:41.869Z,15.47
2019-04-30T15:38:12.286Z,15.30
2019-04-30T15:40:42.613Z,14.37
2019-04-30T15:43:13.098Z,13.00
2019-04-30T15:45:43.477Z,13.50
2019-04-30T15:48:13.793Z,12.60
2019-04-30T15:50:44.106Z,12.60
2019-04-30T15:53:14.422Z,12.47
2019-04-30T15:55:44.745Z,13.87
2019-04-30T15:58:23.093Z,14.03
2019-04-30T16:00:53.587Z,11.73
2019-04-30T16:03:27.134Z,12.50
2019-04-30T16:05:57.519Z,13.80
2019-04-30T16:08:32.205Z,16.60
2019-04-30T16:11:10.477Z,16.53
2019-04-30T16:13:58.628Z,13.10
2019-04-30T16:16:32.949Z,12.83
2019-04-30T16:19:03.585Z,14.73
2019-04-30T16:21:34.036Z,14.03
2019-04-30T16:24:04.724Z,14.80
2019-04-30T16:26:46.372Z,14.60
2019-04-30T16:29:09.823Z,14.27
2019-04-30T16:31:40.171Z,15.67
2019-04-30T16:34:13.537Z,16.90
2019-04-30T16:36:43.962Z,15.20
2019-04-30T16:39:14.417Z,15.73
2019-04-30T16:41:44.869Z,16.30
2019-04-30T16:44:15.291Z,20.40
2019-04-30T16:46:45.661Z,16.83
2019-04-30T16:49:16.336Z,14.63
2019-04-30T16:51:46.825Z,15.27
2019-04-30T16:54:20.358Z,18.67
2019-04-30T16:57:03.446Z,13.20
2019-04-30T16:59:33.438Z,16.47
2019-04-30T17:02:09.212Z,15.40
2019-04-30T17:04:52.298Z,16.23
2019-04-30T17:07:34.379Z,17.23
2019-04-30T17:10:27.088Z,16.37
2019-04-30T17:13:09.312Z,14.87
2019-04-30T17:15:40.505Z,15.97
2019-04-30T17:18:12.206Z,15.23
2019-04-30T17:20:42.934Z,16.07
2019-04-30T17:23:13.275Z,15.23
2019-04-30T17:25:44.049Z,16.77
2019-04-30T17:28:18.815Z,14.90
2019-04-30T17:30:49.437Z,17.77
2019-04-30T17:33:19.870Z,15.90
2019-04-30T17:35:50.293Z,15.10
2019-04-30T17:38:20.629Z,19.87
2019-04-30T17:40:50.978Z,16.73
2019-04-30T17:43:24.251Z,16.30
2019-04-30T17:45:53.651Z,16.03
2019-04-30T17:48:23.963Z,17.47
2019-04-30T17:50:54.426Z,16.50
2019-04-30T17:53:24.730Z,16.43
2019-04-30T17:55:55.089Z,17.63
2019-04-30T17:58:25.414Z,14.83
2019-04-30T18:00:57.583Z,16.37
2019-04-30T18:03:29.348Z,14.93
2019-04-30T18:05:59.721Z,15.50
2019-04-30T18:08:30.078Z,16.37
2019-04-30T18:11:00.646Z,15.17
2019-04-30T18:13:30.966Z,14.93
2019-04-30T18:16:01.386Z,16.97
2019-04-30T18:18:37.871Z,15.17
2019-04-30T18:21:21.058Z,15.23
2019-04-30T18:24:09.213Z,15.20
2019-04-30T18:26:46.698Z,18.07
2019-04-30T18:29:17.013Z,16.97
2019-04-30T18:31:48.975Z,15.33
2019-04-30T18:34:19.511Z,18.77
2019-04-30T18:36:51.245Z,13.97
2019-04-30T18:39:21.824Z,14.97
2019-04-30T18:41:52.141Z,15.97
2019-04-30T18:44:22.468Z,16.60
2019-04-30T18:46:52.802Z,18.20
2019-04-30T18:49:23.110Z,17.87
2019-04-30T18:51:53.470Z,16.27
2019-04-30T18:54:28.986Z,15.50
2019-04-30T18:56:59.389Z,17.40
2019-04-30T18:59:32.536Z,16.20
2019-04-30T19:02:01.946Z,16.97
2019-04-30T19:04:32.306Z,17.97
2019-04-30T19:07:12.365Z,16.30
2019-04-30T19:09:49.076Z,16.77
2019-04-30T19:12:58.973Z,18.47
2019-04-30T19:16:13.640Z,17.23
2019-04-30T19:18:47.110Z,16.83
2019-04-30T19:21:17.647Z,17.47
2019-04-30T19:23:48.961Z,16.90
2019-04-30T19:26:20.936Z,18.27
2019-04-30T19:28:52.138Z,18.27
2019-04-30T19:31:23.089Z,19.97
2019-04-30T19:33:56.011Z,20.17
2019-04-30T19:36:37.409Z,20.07
2019-04-30T19:39:01.478Z,18.97
2019-04-30T19:41:32.015Z,21.00
2019-04-30T19:44:02.397Z,18.80
2019-04-30T19:46:32.733Z,22.80
2019-04-30T19:49:04.036Z,18.27
2019-04-30T19:51:34.449Z,21.67
2019-04-30T19:54:04.983Z,19.03
2019-04-30T19:56:40.078Z,17.27
2019-04-30T19:59:10.665Z,16.90
2019-04-30T20:01:43.343Z,17.17
2019-04-30T20:04:15.224Z,18.47
2019-04-30T20:06:50.508Z,19.10
2019-04-30T20:09:21.925Z,17.67
2019-04-30T20:11:52.381Z,20.43
2019-04-30T20:14:26.430Z,19.30
2019-04-30T20:16:59.100Z,17.97
2019-04-30T20:19:31.181Z,17.57
2019-04-30T20:22:04.665Z,19.53
2019-04-30T20:24:39.318Z,20.37
2019-04-30T20:27:10.780Z,18.87
2019-04-30T20:29:44.623Z,21.27
2019-04-30T20:32:15.460Z,19.63
2019-04-30T20:34:54.380Z,20.57
2019-04-30T20:37:29.358Z,18.80
2019-04-30T20:40:10.784Z,18.60
2019-04-30T20:42:41.778Z,18.60
2019-04-30T20:45:12.313Z,16.30
2019-04-30T20:47:42.763Z,19.03
2019-04-30T20:50:13.690Z,19.07
2019-04-30T20:52:52.317Z,17.33
2019-04-30T20:55:26.137Z,18.33
2019-04-30T20:57:56.478Z,18.67
2019-04-30T21:00:26.909Z,18.47
2019-04-30T21:02:57.257Z,21.00
2019-04-30T21:05:27.683Z,19.90
2019-04-30T21:07:58.221Z,19.40
2019-04-30T21:10:29.733Z,20.30
2019-04-30T21:13:00.258Z,19.77
2019-04-30T21:15:30.629Z,19.73
2019-04-30T21:18:01.011Z,19.93
2019-04-30T21:20:31.456Z,18.47
2019-04-30T21:23:01.810Z,19.93
2019-04-30T21:25:32.121Z,21.37
2019-04-30T21:28:02.498Z,21.17
2019-04-30T21:30:32.957Z,20.40
2019-04-30T21:33:28.486Z,21.60
2019-04-30T21:36:20.177Z,19.43
2019-04-30T21:38:50.505Z,21.40
2019-04-30T21:41:20.890Z,20.17
2019-04-30T21:43:51.373Z,21.90
2019-04-30T21:46:21.730Z,20.80
2019-04-30T21:48:52.665Z,20.90
2019-04-30T21:51:22.970Z,19.57
2019-04-30T21:53:53.369Z,19.30
2019-04-30T21:56:24.026Z,19.57
2019-04-30T21:58:55.746Z,19.37
2019-04-30T22:01:26.624Z,21.33
2019-04-30T22:03:57.513Z,19.20
2019-04-30T22:06:29.707Z,21.20
2019-04-30T22:09:01.074Z,20.40
2019-04-30T22:11:31.914Z,21.63
2019-04-30T22:14:02.289Z,23.13
2019-04-30T22:16:32.733Z,21.10
2019-04-30T22:19:03.073Z,21.57
2019-04-30T22:21:33.621Z,21.37
2019-04-30T22:24:03.997Z,21.00
2019-04-30T22:26:34.474Z,20.33
2019-04-30T22:29:05.108Z,22.93
2019-04-30T22:31:35.740Z,22.00
2019-04-30T22:34:08.783Z,24.10
2019-04-30T22:36:48.845Z,21.00
2019-04-30T22:39:33.381Z,22.53
2019-04-30T22:42:39.795Z,26.07
2019-04-30T22:45:21.392Z,27.47
2019-04-30T22:47:53.195Z,25.93
2019-04-30T22:50:25.161Z,24.37
2019-04-30T22:52:55.654Z,23.87
2019-04-30T22:55:25.993Z,27.07
2019-04-30T22:57:56.302Z,25.60
2019-04-30T23:00:39.528Z,24.03
2019-04-30T23:03:12.938Z,26.47
2019-04-30T23:05:43.261Z,28.33
2019-04-30T23:08:13.569Z,29.43
2019-04-30T23:10:43.901Z,27.27
2019-04-30T23:13:14.517Z,29.20
2019-04-30T23:15:44.906Z,27.37
2019-04-30T23:18:15.343Z,29.07
2019-04-30T23:20:45.693Z,31.77
2019-04-30T23:23:16.042Z,27.03
2019-04-30T23:25:46.345Z,30.70
2019-04-30T23:28:16.878Z,30.43
2019-04-30T23:30:47.269Z,31.87
2019-04-30T23:33:17.597Z,31.53
2019-04-30T23:35:47.918Z,30.77
2019-04-30T23:38:18.253Z,30.77
2019-04-30T23:40:51.182Z,30.00
2019-04-30T23:43:21.604Z,30.97
2019-04-30T23:45:51.917Z,29.80
2019-04-30T23:48:22.491Z,31.57
2019-04-30T23:50:52.925Z,33.53
2019-04-30T23:53:23.240Z,30.40
2019-04-30T23:55:53.856Z,33.03
2019-04-30T23:58:24.201Z,33.60
